createdAt,value
2022-11-19T00:03:59.109Z,6.05
2022-11-19T00:09:00.755Z,6.20
2022-11-19T00:14:02.390Z,5.94
2022-11-19T00:19:04.556Z,5.61
2022-11-19T00:24:07.082Z,5.55
2022-11-19T00:29:17.712Z,5.42
2022-11-19T00:34:19.722Z,5.11
2022-11-19T00:39:22.172Z,4.82
2022-11-19T00:44:23.999Z,4.52
2022-11-19T00:49:40.664Z,4.29
2022-11-19T00:54:42.304Z,4.32
2022-11-19T00:59:43.941Z,4.04
2022-11-19T01:04:45.595Z,3.95
2022-11-19T01:09:47.431Z,3.61
2022-11-19T01:14:49.227Z,3.62
2022-11-19T01:19:50.867Z,3.62
2022-11-19T01:24:52.651Z,3.46
2022-11-19T01:29:54.307Z,3.44
2022-11-19T01:34:57.974Z,3.21
2022-11-19T01:39:59.691Z,2.94
2022-11-19T01:45:05.470Z,2.84
2022-11-19T01:50:07.360Z,2.82
2022-11-19T01:55:09.801Z,2.88
2022-11-19T02:00:12.016Z,2.98
2022-11-19T02:05:13.709Z,2.94
2022-11-19T02:10:15.387Z,3.12
2022-11-19T02:15:45.876Z,3.33
2022-11-19T02:20:53.969Z,3.41
2022-11-19T02:26:31.022Z,3.36
2022-11-19T02:32:14.293Z,3.17
2022-11-19T02:37:29.429Z,3.24
2022-11-19T02:42:37.172Z,3.39
2022-11-19T02:47:45.987Z,3.47
2022-11-19T02:52:48.433Z,3.09
2022-11-19T02:58:05.811Z,2.80
2022-11-19T03:03:33.676Z,2.79
2022-11-19T03:08:35.689Z,2.83
2022-11-19T03:14:15.884Z,2.84
2022-11-19T03:19:30.554Z,2.71
2022-11-19T03:25:00.548Z,2.37
2022-11-19T03:30:03.406Z,2.25
2022-11-19T03:35:10.775Z,2.13
2022-11-19T03:40:15.473Z,2.22
2022-11-19T03:45:46.875Z,2.00
2022-11-19T03:51:07.210Z,2.24
2022-11-19T03:56:12.024Z,1.86
2022-11-19T04:01:14.274Z,1.78
2022-11-19T04:06:15.888Z,1.62
2022-11-19T04:16:18.872Z,1.29
2022-11-19T04:21:20.503Z,1.40
2022-11-19T04:26:22.130Z,1.43
2022-11-19T04:31:23.784Z,1.70
2022-11-19T04:36:28.543Z,1.66
2022-11-19T04:41:30.246Z,1.87
2022-11-19T04:46:32.578Z,1.68
2022-11-19T04:51:34.232Z,1.57
2022-11-19T04:56:36.839Z,1.59
2022-11-19T05:01:38.455Z,1.63
2022-11-19T05:06:40.154Z,1.65
2022-11-19T05:11:41.783Z,1.59
2022-11-19T05:16:43.425Z,1.79
2022-11-19T05:21:45.041Z,1.65
2022-11-19T05:26:46.836Z,1.53
2022-11-19T05:31:48.544Z,1.68
2022-11-19T05:36:50.269Z,1.87
2022-11-19T05:41:51.970Z,1.93
2022-11-19T05:46:53.608Z,1.59
2022-11-19T05:51:55.266Z,1.16
2022-11-19T05:56:57.051Z,1.17
2022-11-19T06:01:58.817Z,1.35
2022-11-19T06:07:00.523Z,1.28
2022-11-19T06:12:02.208Z,1.24
2022-11-19T06:17:04.133Z,1.14
2022-11-19T06:22:05.776Z,1.18
2022-11-19T06:27:07.549Z,1.17
2022-11-19T06:32:09.201Z,0.94
2022-11-19T06:37:10.838Z,1.30
2022-11-19T06:42:31.255Z,1.01
2022-11-19T06:47:33.723Z,1.12
2022-11-19T06:52:35.828Z,1.35
2022-11-19T06:57:37.469Z,1.25
2022-11-19T07:02:39.159Z,1.06
2022-11-19T07:07:40.927Z,0.96
2022-11-19T07:12:42.625Z,0.91
2022-11-19T07:17:44.556Z,0.78
2022-11-19T07:22:46.766Z,0.88
2022-11-19T07:27:48.460Z,1.25
2022-11-19T07:32:50.072Z,1.16
2022-11-19T07:37:51.715Z,1.20
2022-11-19T07:42:53.449Z,0.95
2022-11-19T07:47:55.055Z,1.06
2022-11-19T07:52:59.308Z,1.05
2022-11-19T07:58:01.082Z,0.98
2022-11-19T08:03:02.736Z,1.09
2022-11-19T08:08:04.508Z,1.25
2022-11-19T08:13:06.166Z,1.50
2022-11-19T08:18:13.609Z,1.47
2022-11-19T08:23:15.776Z,1.46
2022-11-19T08:28:19.602Z,1.38
2022-11-19T08:33:23.321Z,1.60
2022-11-19T08:38:28.210Z,1.75
2022-11-19T08:43:29.833Z,1.82
2022-11-19T08:48:32.953Z,1.76
2022-11-19T08:53:42.139Z,1.38
2022-11-19T08:58:45.924Z,1.54
2022-11-19T09:03:53.813Z,1.68
2022-11-19T09:09:02.244Z,1.59
2022-11-19T09:14:05.948Z,1.77
2022-11-19T09:19:09.695Z,1.86
2022-11-19T09:24:22.628Z,1.68
2022-11-19T09:29:26.505Z,1.71
2022-11-19T09:34:28.305Z,1.41
2022-11-19T09:39:33.640Z,1.36
2022-11-19T09:45:01.101Z,1.23
2022-11-19T09:50:23.600Z,1.36
2022-11-19T09:55:41.525Z,1.43
2022-11-19T10:00:44.573Z,1.59
2022-11-19T10:06:28.531Z,1.76
2022-11-19T10:11:55.554Z,1.92
2022-11-19T10:17:20.194Z,2.03
2022-11-19T10:22:30.620Z,1.96
2022-11-19T10:27:46.551Z,2.06
2022-11-19T10:33:07.502Z,1.79
2022-11-19T10:38:25.566Z,1.79
2022-11-19T10:43:34.902Z,1.70
2022-11-19T10:48:48.271Z,1.93
2022-11-19T10:53:54.640Z,2.02
2022-11-19T10:59:04.012Z,2.12
2022-11-19T11:04:29.805Z,2.00
2022-11-19T11:09:40.133Z,1.78
2022-11-19T11:14:54.227Z,1.73
2022-11-19T11:20:20.455Z,1.82
2022-11-19T11:25:28.066Z,2.00
2022-11-19T11:30:37.143Z,2.04
2022-11-19T11:35:45.754Z,1.85
2022-11-19T11:41:41.729Z,1.99
2022-11-19T11:46:23.216Z,1.98
2022-11-19T11:51:28.468Z,2.21
2022-11-19T11:56:31.269Z,2.30
2022-11-19T12:01:33.016Z,2.22
2022-11-19T12:06:57.832Z,1.80
2022-11-19T12:12:28.594Z,1.66
2022-11-19T12:18:04.335Z,1.88
2022-11-19T12:23:22.964Z,1.94
2022-11-19T12:29:03.877Z,1.86
2022-11-19T12:34:38.675Z,1.60
2022-11-19T12:40:18.954Z,1.79
2022-11-19T12:45:46.080Z,1.92
2022-11-19T12:51:08.649Z,1.81
2022-11-19T12:56:46.900Z,1.84
2022-11-19T13:01:55.450Z,1.68
2022-11-19T13:07:29.820Z,1.90
2022-11-19T13:12:37.814Z,1.92
2022-11-19T13:17:56.703Z,1.69
2022-11-19T13:23:04.818Z,1.72
2022-11-19T13:28:20.429Z,1.85
2022-11-19T13:33:40.076Z,1.91
2022-11-19T13:38:49.592Z,2.00
2022-11-19T13:44:16.754Z,1.85
2022-11-19T13:49:33.767Z,1.83
2022-11-19T13:54:41.088Z,2.10
2022-11-19T14:00:22.245Z,2.04
2022-11-19T14:05:35.036Z,2.09
2022-11-19T14:10:42.777Z,2.11
2022-11-19T14:16:15.965Z,2.24
2022-11-19T14:21:59.720Z,2.17
2022-11-19T14:27:14.635Z,2.12
2022-11-19T14:32:29.200Z,1.98
2022-11-19T14:37:41.976Z,1.95
2022-11-19T14:43:20.508Z,1.88
2022-11-19T14:48:23.075Z,1.84
2022-11-19T14:53:25.554Z,2.00
2022-11-19T14:58:27.310Z,1.94
2022-11-19T15:03:30.575Z,1.71
2022-11-19T15:08:53.435Z,1.80
2022-11-19T15:14:27.885Z,1.65
2022-11-19T15:19:39.980Z,1.78
2022-11-19T15:25:18.411Z,1.88
2022-11-19T15:30:24.248Z,1.99
2022-11-19T15:35:36.688Z,1.91
2022-11-19T15:40:39.274Z,1.97
2022-11-19T15:45:47.822Z,2.09
2022-11-19T15:50:50.332Z,2.03
2022-11-19T15:55:53.808Z,1.89
2022-11-19T16:00:56.088Z,1.95
2022-11-19T16:06:16.069Z,2.04
2022-11-19T16:11:41.379Z,1.98
2022-11-19T16:17:02.927Z,1.83
2022-11-19T16:22:17.723Z,1.73
2022-11-19T16:27:23.192Z,1.87
2022-11-19T16:32:27.617Z,1.54
2022-11-19T16:37:30.324Z,1.53
2022-11-19T16:42:39.870Z,1.56
2022-11-19T16:47:59.633Z,1.56
2022-11-19T16:53:05.682Z,1.41
2022-11-19T16:58:25.309Z,1.48
2022-11-19T17:03:39.600Z,1.31
2022-11-19T17:08:56.798Z,1.51
2022-11-19T17:14:19.783Z,1.83
2022-11-19T17:19:31.542Z,1.89
2022-11-19T17:24:47.712Z,1.83
2022-11-19T17:29:49.622Z,1.97
2022-11-19T17:34:55.407Z,1.91
2022-11-19T17:39:57.117Z,1.92
2022-11-19T17:45:01.902Z,1.87
2022-11-19T17:50:11.296Z,1.73
2022-11-19T17:55:20.633Z,1.67
2022-11-19T18:00:30.131Z,1.59
2022-11-19T18:05:37.769Z,1.69
2022-11-19T18:10:42.924Z,1.60
2022-11-19T18:15:44.706Z,1.66
2022-11-19T18:20:47.355Z,1.57
2022-11-19T18:25:53.109Z,1.57
2022-11-19T18:30:55.828Z,1.69
2022-11-19T18:36:00.569Z,1.51
2022-11-19T18:41:04.321Z,1.50
2022-11-19T18:46:09.988Z,1.63
2022-11-19T18:51:12.850Z,1.80
2022-11-19T18:56:16.105Z,1.86
2022-11-19T19:01:18.464Z,1.96
2022-11-19T19:06:23.207Z,1.88
2022-11-19T19:11:43.297Z,1.74
2022-11-19T19:16:44.955Z,1.61
2022-11-19T19:21:46.984Z,1.79
2022-11-19T19:26:48.973Z,1.97
2022-11-19T19:31:50.623Z,2.06
2022-11-19T19:36:53.649Z,1.94
2022-11-19T19:41:55.460Z,1.75
2022-11-19T19:46:57.141Z,1.93
2022-11-19T19:51:58.801Z,1.89
2022-11-19T19:57:00.456Z,1.85
2022-11-19T20:02:02.289Z,1.80
2022-11-19T20:07:04.039Z,1.93
2022-11-19T20:12:06.133Z,1.79
2022-11-19T20:17:07.792Z,1.91
2022-11-19T20:22:10.227Z,1.92
2022-11-19T20:27:13.982Z,2.04
2022-11-19T20:32:18.681Z,1.96
2022-11-19T20:37:23.771Z,1.90
2022-11-19T20:42:43.836Z,1.96
2022-11-19T20:47:46.690Z,2.03
2022-11-19T20:52:48.386Z,1.72
2022-11-19T20:57:55.739Z,1.56
2022-11-19T21:02:57.402Z,1.67
2022-11-19T21:08:00.617Z,1.84
2022-11-19T21:13:04.378Z,1.83
2022-11-19T21:18:06.980Z,1.82
2022-11-19T21:23:09.448Z,1.82
2022-11-19T21:28:12.127Z,1.69
2022-11-19T21:33:13.945Z,1.77
2022-11-19T21:38:15.696Z,1.54
2022-11-19T21:43:18.303Z,1.69
2022-11-19T21:48:21.647Z,1.86
2022-11-19T21:53:23.437Z,1.71
2022-11-19T21:58:25.149Z,1.66
2022-11-19T22:03:28.501Z,1.79
2022-11-19T22:08:32.033Z,1.70
2022-11-19T22:13:33.894Z,1.53
2022-11-19T22:18:35.540Z,1.61
2022-11-19T22:23:37.492Z,1.58
2022-11-19T22:28:39.667Z,1.69
2022-11-19T22:33:41.915Z,1.72
2022-11-19T22:38:43.671Z,1.57
2022-11-19T22:43:46.339Z,1.59
2022-11-19T22:48:48.238Z,1.64
2022-11-19T22:53:51.078Z,1.67
2022-11-19T22:58:53.431Z,1.75
2022-11-19T23:03:56.718Z,1.74
2022-11-19T23:08:58.376Z,1.73
2022-11-19T23:14:00.086Z,1.68
2022-11-19T23:19:01.769Z,1.70
2022-11-19T23:24:04.447Z,1.76
2022-11-19T23:29:06.926Z,1.82
2022-11-19T23:34:08.781Z,1.65
2022-11-19T23:39:15.813Z,1.51
2022-11-19T23:44:17.556Z,1.65
2022-11-19T23:49:19.541Z,1.80
2022-11-19T23:54:21.513Z,1.86
2022-11-19T23:59:25.750Z,1.77
